createdAt,value
2019-01-05T00:02:42.254Z,24.10
2019-01-05T00:05:27.214Z,28.23
2019-01-05T00:08:08.129Z,23.33
2019-01-05T00:10:55.492Z,27.07
2019-01-05T00:13:42.745Z,21.53
2019-01-05T00:16:34.458Z,19.82
2019-01-05T00:19:22.321Z,22.57
2019-01-05T00:22:07.586Z,19.30
2019-01-05T00:25:05.345Z,25.08
2019-01-05T00:27:52.656Z,18.65
2019-01-05T00:30:36.835Z,17.70
2019-01-05T00:33:30.381Z,23.30
2019-01-05T00:36:14.839Z,17.62
2019-01-05T00:39:07.386Z,21.07
2019-01-05T00:41:55.316Z,19.90
2019-01-05T00:44:42.513Z,14.30
2019-01-05T00:47:36.623Z,15.80
2019-01-05T00:50:23.867Z,14.25
2019-01-05T00:53:11.138Z,14.78
2019-01-05T00:55:53.153Z,18.65
2019-01-05T00:58:49.911Z,20.53
2019-01-05T01:01:41.826Z,17.73
2019-01-05T01:04:30.336Z,10.63
2019-01-05T01:07:17.946Z,14.43
2019-01-05T01:10:06.473Z,13.85
2019-01-05T01:12:54.114Z,16.93
2019-01-05T01:15:41.393Z,13.20
2019-01-05T01:18:21.051Z,15.70
2019-01-05T01:21:17.211Z,17.53
2019-01-05T01:24:05.441Z,16.55
2019-01-05T01:26:44.914Z,16.00
2019-01-05T01:29:28.718Z,14.87
2019-01-05T01:32:17.312Z,9.63
2019-01-05T01:35:03.181Z,15.53
2019-01-05T01:38:28.802Z,18.00
2019-01-05T01:41:17.125Z,9.48
2019-01-05T01:44:05.020Z,15.32
2019-01-05T01:46:53.008Z,13.93
2019-01-05T01:49:43.397Z,10.95
2019-01-05T01:52:30.648Z,8.45
2019-01-05T01:55:05.478Z,9.30
2019-01-05T01:57:54.752Z,10.63
2019-01-05T02:00:35.584Z,7.85
2019-01-05T02:03:17.169Z,12.37
2019-01-05T02:06:09.936Z,13.95
2019-01-05T02:09:11.727Z,7.67
2019-01-05T02:12:03.279Z,10.28
2019-01-05T02:14:51.859Z,7.50
2019-01-05T02:17:56.676Z,8.65
2019-01-05T02:20:56.001Z,7.08
2019-01-05T02:24:27.454Z,7.60
2019-01-05T02:28:03.610Z,6.25
2019-01-05T02:31:27.838Z,7.40
2019-01-05T02:34:33.567Z,7.20
2019-01-05T02:37:53.514Z,3.87
2019-01-05T02:41:26.830Z,6.12
2019-01-05T02:44:40.106Z,6.40
2019-01-05T02:48:12.205Z,4.97
2019-01-05T02:51:42.298Z,4.30
2019-01-05T02:55:15.791Z,5.83
2019-01-05T02:58:42.080Z,7.70
2019-01-05T03:02:16.470Z,9.30
2019-01-05T03:05:41.184Z,6.90
2019-01-05T03:09:08.933Z,5.55
2019-01-05T03:12:26.632Z,3.70
2019-01-05T03:15:37.734Z,3.33
2019-01-05T03:18:51.988Z,3.70
2019-01-05T03:22:02.986Z,4.80
2019-01-05T03:25:40.367Z,3.42
2019-01-05T03:29:03.453Z,4.60
2019-01-05T03:32:32.450Z,5.40
2019-01-05T03:35:44.002Z,8.50
2019-01-05T03:39:04.489Z,4.97
2019-01-05T03:42:21.126Z,10.25
2019-01-05T03:45:42.438Z,6.57
2019-01-05T03:48:58.390Z,7.90
2019-01-05T03:52:25.905Z,9.80
2019-01-05T03:55:53.060Z,9.13
2019-01-05T03:59:16.525Z,7.97
2019-01-05T04:02:51.493Z,8.35
2019-01-05T04:06:26.564Z,7.50
2019-01-05T04:09:37.587Z,7.92
2019-01-05T04:13:13.249Z,12.58
2019-01-05T04:16:20.244Z,7.28
2019-01-05T04:19:47.671Z,5.12
2019-01-05T04:23:47.619Z,8.53
2019-01-05T04:27:05.466Z,9.05
2019-01-05T04:30:33.064Z,7.40
2019-01-05T04:34:01.207Z,7.60
2019-01-05T04:37:21.300Z,6.60
2019-01-05T04:40:37.803Z,6.00
2019-01-05T04:44:26.185Z,5.63
2019-01-05T04:47:54.237Z,4.80
2019-01-05T04:51:11.332Z,4.60
2019-01-05T04:54:25.540Z,3.62
2019-01-05T04:57:48.800Z,2.87
2019-01-05T05:01:16.256Z,6.58
2019-01-05T05:04:39.528Z,5.42
2019-01-05T05:07:45.460Z,7.75
2019-01-05T05:11:32.200Z,3.85
2019-01-05T05:15:13.511Z,5.97
2019-01-05T05:18:28.953Z,5.08
2019-01-05T05:21:46.181Z,4.20
2019-01-05T05:25:08.489Z,7.92
2019-01-05T05:28:29.232Z,5.50
2019-01-05T05:31:52.881Z,5.75
2019-01-05T05:35:13.334Z,5.87
2019-01-05T05:38:44.357Z,7.20
2019-01-05T05:41:55.631Z,5.10
2019-01-05T05:45:17.371Z,7.22
2019-01-05T05:49:09.404Z,5.30
2019-01-05T05:52:50.077Z,7.33
2019-01-05T05:56:40.646Z,10.33
2019-01-05T06:00:00.831Z,8.35
2019-01-05T06:03:32.945Z,7.00
2019-01-05T06:07:02.153Z,6.85
2019-01-05T06:10:36.858Z,7.33
2019-01-05T06:14:18.909Z,7.27
2019-01-05T06:17:35.522Z,8.83
2019-01-05T06:21:03.502Z,6.57
2019-01-05T06:24:37.527Z,5.87
2019-01-05T06:27:59.537Z,5.80
2019-01-05T06:31:21.078Z,5.53
2019-01-05T06:34:44.666Z,4.80
2019-01-05T06:38:16.091Z,4.22
2019-01-05T06:41:31.948Z,5.72
2019-01-05T06:45:05.313Z,10.97
2019-01-05T06:48:46.096Z,8.80
2019-01-05T06:52:12.698Z,4.80
2019-01-05T06:55:32.000Z,10.60
2019-01-05T06:59:04.351Z,8.90
2019-01-05T07:02:32.850Z,6.70
2019-01-05T07:05:33.781Z,7.50
2019-01-05T07:09:00.862Z,11.22
2019-01-05T07:12:17.222Z,10.60
2019-01-05T07:15:47.703Z,10.35
2019-01-05T07:19:20.833Z,6.75
2019-01-05T07:22:55.819Z,7.83
2019-01-05T07:26:31.811Z,9.05
2019-01-05T07:29:55.450Z,6.40
2019-01-05T07:33:00.796Z,8.90
2019-01-05T07:36:13.486Z,10.03
2019-01-05T07:39:51.136Z,8.70
2019-01-05T07:43:24.900Z,8.20
2019-01-05T07:46:58.949Z,8.30
2019-01-05T07:50:24.464Z,9.30
2019-01-05T07:53:58.186Z,6.72
2019-01-05T07:57:45.097Z,9.00
2019-01-05T08:01:14.020Z,9.98
2019-01-05T08:04:51.695Z,7.37
2019-01-05T08:08:13.121Z,14.13
2019-01-05T08:11:25.702Z,11.28
2019-01-05T08:15:08.763Z,8.30
2019-01-05T08:18:35.723Z,15.00
2019-01-05T08:22:01.886Z,13.60
2019-01-05T08:25:14.453Z,10.60
2019-01-05T08:28:50.880Z,15.78
2019-01-05T08:32:14.848Z,14.65
2019-01-05T08:35:39.509Z,9.40
2019-01-05T08:39:05.431Z,9.50
2019-01-05T08:42:36.238Z,13.68
2019-01-05T08:46:11.969Z,14.13
2019-01-05T08:49:28.960Z,14.23
2019-01-05T08:52:59.403Z,11.05
2019-01-05T08:56:25.553Z,11.97
2019-01-05T08:59:27.815Z,15.23
2019-01-05T09:03:05.203Z,12.77
2019-01-05T09:06:33.000Z,13.20
2019-01-05T09:10:08.637Z,18.15
2019-01-05T09:13:21.650Z,14.97
2019-01-05T09:16:41.744Z,15.47
2019-01-05T09:20:13.530Z,14.70
2019-01-05T09:23:47.836Z,15.15
2019-01-05T09:27:23.194Z,11.63
2019-01-05T09:31:14.737Z,14.03
2019-01-05T09:34:35.116Z,14.47
2019-01-05T09:37:49.613Z,11.72
2019-01-05T09:40:59.489Z,15.10
2019-01-05T09:44:50.443Z,17.27
2019-01-05T09:47:59.476Z,12.63
2019-01-05T09:51:36.491Z,14.95
2019-01-05T09:55:00.659Z,12.30
2019-01-05T09:58:18.895Z,13.55
2019-01-05T10:01:42.169Z,16.93
2019-01-05T10:04:43.210Z,16.70
2019-01-05T10:08:12.143Z,14.55
2019-01-05T10:11:24.238Z,10.30
2019-01-05T10:14:52.332Z,11.07
2019-01-05T10:18:14.319Z,11.97
2019-01-05T10:21:46.669Z,11.10
2019-01-05T10:25:23.472Z,11.05
2019-01-05T10:28:59.284Z,10.05
2019-01-05T10:32:16.212Z,12.18
2019-01-05T10:35:50.027Z,12.05
2019-01-05T11:43:58.451Z,5.97
2019-01-05T11:47:07.366Z,8.78
2019-01-05T11:50:18.744Z,9.05
2019-01-05T11:57:04.687Z,11.38
2019-01-05T12:00:45.336Z,7.10
2019-01-05T12:04:14.569Z,7.70
2019-01-05T12:07:36.998Z,8.90
2019-01-05T12:11:00.562Z,6.40
2019-01-05T12:14:19.637Z,5.58
2019-01-05T12:17:52.009Z,7.67
2019-01-05T12:21:12.431Z,10.43
2019-01-05T12:24:36.772Z,7.95
2019-01-05T12:28:00.591Z,12.28
2019-01-05T12:31:29.903Z,8.53
2019-01-05T12:34:58.207Z,9.60
2019-01-05T12:38:36.484Z,10.37
2019-01-05T12:42:16.662Z,8.37
2019-01-05T12:45:26.167Z,6.00
2019-01-05T12:48:48.287Z,11.15
2019-01-05T12:52:26.824Z,11.67
2019-01-05T12:55:55.335Z,10.42
2019-01-05T12:59:27.023Z,9.80
2019-01-05T13:02:51.608Z,10.83
2019-01-05T13:06:14.194Z,10.77
2019-01-05T13:09:51.912Z,10.53
2019-01-05T13:13:13.103Z,11.43
2019-01-05T13:16:41.672Z,6.22
2019-01-05T13:20:21.673Z,4.20
2019-01-05T13:23:41.814Z,10.18
2019-01-05T13:27:20.638Z,4.67
2019-01-05T13:30:46.113Z,5.90
2019-01-05T13:34:10.854Z,9.88
2019-01-05T13:37:32.507Z,5.95
2019-01-05T13:41:06.094Z,6.12
2019-01-05T13:44:44.571Z,5.78
2019-01-05T13:48:09.257Z,5.50
2019-01-05T13:53:04.217Z,6.60
2019-01-05T13:56:05.157Z,6.40
2019-01-05T13:59:01.712Z,10.23
2019-01-05T14:01:50.229Z,10.63
2019-01-05T14:04:33.715Z,15.48
2019-01-05T14:07:27.180Z,40.95
2019-01-05T14:10:28.036Z,26.50
2019-01-05T14:13:15.578Z,42.93
2019-01-05T14:16:16.011Z,7.43
2019-01-05T14:19:04.653Z,5.85
2019-01-05T14:21:55.103Z,7.63
2019-01-05T14:24:42.274Z,8.60
2019-01-05T14:27:42.736Z,8.97
2019-01-05T14:30:26.500Z,7.47
2019-01-05T14:33:13.968Z,7.17
2019-01-05T14:36:01.287Z,6.53
2019-01-05T14:38:52.977Z,5.28
2019-01-05T14:41:40.437Z,8.80
2019-01-05T14:44:27.652Z,9.00
2019-01-05T14:47:22.074Z,7.60
2019-01-05T14:50:13.475Z,6.37
2019-01-05T14:53:04.759Z,7.60
2019-01-05T14:55:57.507Z,10.27
2019-01-05T14:58:45.034Z,7.20
2019-01-05T15:01:42.816Z,10.80
2019-01-05T15:04:30.250Z,6.70
2019-01-05T15:07:27.264Z,6.65
2019-01-05T15:10:14.606Z,10.30
2019-01-05T15:12:58.315Z,5.60
2019-01-05T15:15:49.869Z,7.22
2019-01-05T15:18:37.085Z,7.47
2019-01-05T15:21:24.324Z,8.53
2019-01-05T15:24:07.746Z,9.40
2019-01-05T15:27:08.415Z,7.87
2019-01-05T15:30:15.246Z,8.80
2019-01-05T15:33:12.881Z,10.63
2019-01-05T15:36:04.218Z,12.13
2019-01-05T15:38:51.606Z,8.78
2019-01-05T15:41:38.985Z,12.23
2019-01-05T15:44:24.136Z,8.20
2019-01-05T15:47:04.601Z,8.70
2019-01-05T15:50:11.630Z,8.07
2019-01-05T15:52:58.809Z,7.06
2019-01-05T15:55:47.058Z,19.50
2019-01-05T15:58:37.130Z,7.80
2019-01-05T16:01:24.691Z,5.63
2019-01-05T16:04:09.729Z,8.90
2019-01-05T16:06:58.270Z,8.83
2019-01-05T16:09:50.044Z,8.73
2019-01-05T16:12:47.662Z,11.25
2019-01-05T16:15:35.028Z,8.33
2019-01-05T16:18:30.333Z,9.13
2019-01-05T16:21:17.323Z,9.28
2019-01-05T16:24:18.771Z,7.77
2019-01-05T16:27:07.295Z,9.80
2019-01-05T16:29:55.818Z,11.15
2019-01-05T16:32:43.219Z,11.10
2019-01-05T16:35:38.409Z,12.03
2019-01-05T16:38:24.608Z,9.33
2019-01-05T16:41:06.738Z,11.50
2019-01-05T16:43:47.688Z,12.60
2019-01-05T16:46:41.873Z,12.43
2019-01-05T16:49:36.203Z,14.28
2019-01-05T16:52:21.350Z,11.13
2019-01-05T16:55:09.884Z,10.35
2019-01-05T16:58:01.806Z,9.35
2019-01-05T17:01:05.739Z,8.70
2019-01-05T17:04:03.309Z,8.35
2019-01-05T17:06:50.562Z,10.60
2019-01-05T17:09:37.868Z,7.57
2019-01-05T17:12:29.051Z,9.70
2019-01-05T17:15:30.811Z,8.16
2019-01-05T17:18:17.851Z,9.90
2019-01-05T17:21:05.236Z,7.17
2019-01-05T17:23:53.707Z,8.60
2019-01-05T17:26:45.121Z,9.48
2019-01-05T17:29:39.907Z,9.73
2019-01-05T17:32:22.222Z,13.08
2019-01-05T17:35:15.401Z,8.08
2019-01-05T17:38:03.938Z,8.63
2019-01-05T17:40:51.361Z,9.58
2019-01-05T17:43:39.593Z,8.53
2019-01-05T17:46:40.272Z,10.70
2019-01-05T17:49:31.639Z,11.43
2019-01-05T17:52:19.799Z,14.25
2019-01-05T17:55:08.366Z,11.38
2019-01-05T17:57:56.909Z,10.98
2019-01-05T18:00:54.372Z,11.00
2019-01-05T18:03:36.559Z,11.03
2019-01-05T18:06:24.178Z,11.93
2019-01-05T18:09:04.993Z,11.43
2019-01-05T18:11:51.251Z,11.05
2019-01-05T18:14:35.508Z,11.12
2019-01-05T18:17:24.070Z,9.13
2019-01-05T18:20:19.072Z,14.43
2019-01-05T18:23:07.600Z,14.50
2019-01-05T18:25:55.076Z,14.47
2019-01-05T18:28:56.101Z,17.90
2019-01-05T18:31:43.424Z,12.60
2019-01-05T18:34:31.012Z,13.23
2019-01-05T18:37:21.021Z,13.40
2019-01-05T18:40:08.546Z,10.98
2019-01-05T18:42:59.034Z,16.40
2019-01-05T18:45:53.895Z,10.58
2019-01-05T18:48:41.203Z,11.30
2019-01-05T18:51:35.893Z,17.80
2019-01-05T18:54:39.869Z,8.50
2019-01-05T18:57:26.938Z,14.00
2019-01-05T19:00:10.436Z,16.30
2019-01-05T19:03:02.174Z,16.82
2019-01-05T19:05:45.408Z,15.40
2019-01-05T19:08:33.063Z,11.00
2019-01-05T19:11:21.367Z,14.03
2019-01-05T19:14:07.292Z,8.47
2019-01-05T19:16:54.832Z,11.00
2019-01-05T19:19:42.031Z,19.40
2019-01-05T19:22:36.605Z,12.10
2019-01-05T19:25:24.058Z,9.80
2019-01-05T19:28:11.757Z,6.53
2019-01-05T19:30:58.943Z,9.43
2019-01-05T19:33:47.298Z,9.20
2019-01-05T19:36:34.674Z,8.33
2019-01-05T19:39:19.909Z,9.53
2019-01-05T19:42:14.326Z,7.70
2019-01-05T19:45:03.702Z,7.00
2019-01-05T19:47:52.242Z,5.25
2019-01-05T19:50:45.617Z,9.25
2019-01-05T19:53:45.737Z,7.03
2019-01-05T19:56:33.020Z,6.10
2019-01-05T19:59:20.301Z,7.33
2019-01-05T20:02:20.398Z,7.60
2019-01-05T20:04:59.505Z,8.53
2019-01-05T20:07:48.083Z,7.12
2019-01-05T20:10:50.648Z,7.33
2019-01-05T20:13:44.977Z,8.63
2019-01-05T20:16:32.130Z,12.00
2019-01-05T20:19:17.929Z,7.05
2019-01-05T20:22:05.067Z,7.33
2019-01-05T20:25:01.226Z,8.10
2019-01-05T20:27:54.367Z,6.87
2019-01-05T20:30:41.806Z,7.53
2019-01-05T20:33:42.793Z,6.13
2019-01-05T20:36:30.114Z,6.45
2019-01-05T20:39:17.559Z,11.65
2019-01-05T20:42:04.884Z,7.30
2019-01-05T20:45:12.056Z,8.53
2019-01-05T20:48:07.383Z,11.70
2019-01-05T20:50:54.871Z,12.05
2019-01-05T20:53:46.473Z,7.60
2019-01-05T20:56:33.862Z,10.58
2019-01-05T20:59:27.519Z,12.57
2019-01-05T21:02:14.836Z,16.20
2019-01-05T21:05:07.098Z,14.50
2019-01-05T21:07:54.394Z,14.47
2019-01-05T21:10:52.252Z,15.23
2019-01-05T21:13:50.031Z,15.00
2019-01-05T21:16:46.911Z,10.03
2019-01-05T21:19:42.094Z,12.95
2019-01-05T21:22:39.006Z,16.10
2019-01-05T21:25:37.644Z,10.45
2019-01-05T21:28:30.721Z,13.25
2019-01-05T21:31:25.237Z,18.07
2019-01-05T21:34:14.974Z,13.90
2019-01-05T21:37:18.990Z,14.66
2019-01-05T21:40:03.834Z,14.00
2019-01-05T21:43:03.363Z,22.67
2019-01-05T21:45:55.512Z,15.47
2019-01-05T21:48:39.147Z,15.20
2019-01-05T21:51:26.774Z,14.87
2019-01-05T21:54:17.421Z,17.00
2019-01-05T21:57:04.621Z,20.55
2019-01-05T21:59:52.108Z,16.07
2019-01-05T22:02:34.009Z,20.20
2019-01-05T22:05:21.765Z,21.90
2019-01-05T22:08:14.519Z,23.33
2019-01-05T22:10:56.580Z,20.70
2019-01-05T22:13:45.352Z,23.25
2019-01-05T22:16:32.897Z,17.15
2019-01-05T22:19:16.844Z,19.07
2019-01-05T22:22:04.043Z,18.10
2019-01-05T22:24:45.110Z,19.60
2019-01-05T22:27:36.037Z,19.70
2019-01-05T22:30:29.269Z,21.33
2019-01-05T22:33:16.732Z,19.95
2019-01-05T22:36:23.542Z,19.60
2019-01-05T22:39:21.217Z,27.30
2019-01-05T22:42:13.693Z,27.70
2019-01-05T22:45:05.288Z,20.90
2019-01-05T22:47:53.844Z,20.17
2019-01-05T22:50:42.839Z,22.13
2019-01-05T22:53:30.356Z,23.02
2019-01-05T22:56:18.846Z,20.43
2019-01-05T22:59:06.412Z,23.60
2019-01-05T23:02:00.980Z,20.17
2019-01-05T23:04:48.485Z,21.37
2019-01-05T23:07:35.642Z,20.30
2019-01-05T23:10:43.248Z,23.85
2019-01-05T23:13:30.281Z,26.68
2019-01-05T23:16:17.810Z,23.50
2019-01-05T23:19:05.009Z,23.70
2019-01-05T23:21:52.589Z,27.90
2019-01-05T23:24:32.173Z,28.00
2019-01-05T23:27:23.846Z,32.17
2019-01-05T23:30:21.323Z,29.93
2019-01-05T23:33:15.895Z,27.75
2019-01-05T23:36:16.894Z,26.00
2019-01-05T23:39:14.583Z,25.60
2019-01-05T23:42:01.769Z,24.53
2019-01-05T23:44:49.338Z,24.50
2019-01-05T23:47:36.529Z,21.70
2019-01-05T23:50:34.439Z,22.90
2019-01-05T23:53:33.216Z,24.33
2019-01-05T23:56:10.752Z,22.35
2019-01-05T23:58:57.981Z,22.80
